sensor_id;sensor_type;location;lat;lon;timestamp;P1;durP1;ratioP1;P2;durP2;ratioP2
61531;SDS011;47397;48.194;11.632;2023-04-03T00:00:34;5.18;;;4.22;;
61531;SDS011;47397;48.194;11.632;2023-04-03T00:01:35;4.90;;;4.40;;
61531;SDS011;47397;48.194;11.632;2023-04-03T00:02:35;5.50;;;4.28;;
61531;SDS011;47397;48.194;11.632;2023-04-03T00:03:37;5.55;;;4.53;;
61531;SDS011;47397;48.194;11.632;2023-04-03T00:04:38;5.03;;;4.15;;
61531;SDS011;47397;48.194;11.632;2023-04-03T00:05:38;6.03;;;4.35;;
61531;SDS011;47397;48.194;11.632;2023-04-03T00:06:38;5.70;;;4.65;;
61531;SDS011;47397;48.194;11.632;2023-04-03T00:07:39;5.60;;;4.10;;
61531;SDS011;47397;48.194;11.632;2023-04-03T00:08:39;7.28;;;4.18;;
61531;SDS011;47397;48.194;11.632;2023-04-03T00:09:40;6.72;;;4.45;;
61531;SDS011;47397;48.194;11.632;2023-04-03T00:10:40;6.22;;;4.20;;
61531;SDS011;47397;48.194;11.632;2023-04-03T00:11:41;4.95;;;4.30;;
61531;SDS011;47397;48.194;11.632;2023-04-03T00:12:41;6.13;;;4.30;;
61531;SDS011;47397;48.194;11.632;2023-04-03T00:13:42;6.18;;;4.30;;
61531;SDS011;47397;48.194;11.632;2023-04-03T00:14:43;6.07;;;4.28;;
61531;SDS011;47397;48.194;11.632;2023-04-03T00:15:43;5.18;;;4.22;;
61531;SDS011;47397;48.194;11.632;2023-04-03T00:16:44;5.80;;;4.00;;
61531;SDS011;47397;48.194;11.632;2023-04-03T00:17:44;5.13;;;4.10;;
61531;SDS011;47397;48.194;11.632;2023-04-03T00:18:46;4.70;;;3.88;;
61531;SDS011;47397;48.194;11.632;2023-04-03T00:19:46;5.03;;;4.10;;
61531;SDS011;47397;48.194;11.632;2023-04-03T00:20:47;5.40;;;4.30;;
61531;SDS011;47397;48.194;11.632;2023-04-03T00:21:47;5.35;;;3.63;;
61531;SDS011;47397;48.194;11.632;2023-04-03T00:22:48;5.72;;;4.20;;
61531;SDS011;47397;48.194;11.632;2023-04-03T00:23:48;5.43;;;4.47;;
61531;SDS011;47397;48.194;11.632;2023-04-03T00:24:49;6.28;;;4.68;;
61531;SDS011;47397;48.194;11.632;2023-04-03T00:25:49;7.80;;;4.07;;
61531;SDS011;47397;48.194;11.632;2023-04-03T00:26:50;5.07;;;4.15;;
61531;SDS011;47397;48.194;11.632;2023-04-03T00:27:50;4.60;;;4.00;;
61531;SDS011;47397;48.194;11.632;2023-04-03T00:28:51;5.07;;;3.95;;
61531;SDS011;47397;48.194;11.632;2023-04-03T00:29:51;5.65;;;4.07;;
61531;SDS011;47397;48.194;11.632;2023-04-03T00:30:52;6.32;;;4.63;;
61531;SDS011;47397;48.194;11.632;2023-04-03T00:31:52;6.70;;;3.85;;
61531;SDS011;47397;48.194;11.632;2023-04-03T00:32:53;6.50;;;4.03;;
61531;SDS011;47397;48.194;11.632;2023-04-03T00:33:54;5.35;;;4.00;;
61531;SDS011;47397;48.194;11.632;2023-04-03T00:34:55;5.00;;;3.90;;
61531;SDS011;47397;48.194;11.632;2023-04-03T00:35:55;6.05;;;4.40;;
61531;SDS011;47397;48.194;11.632;2023-04-03T00:36:56;4.93;;;4.03;;
61531;SDS011;47397;48.194;11.632;2023-04-03T00:37:57;6.10;;;4.10;;
61531;SDS011;47397;48.194;11.632;2023-04-03T00:38:58;4.78;;;3.58;;
61531;SDS011;47397;48.194;11.632;2023-04-03T00:39:58;5.18;;;3.65;;
61531;SDS011;47397;48.194;11.632;2023-04-03T00:40:58;5.07;;;3.72;;
61531;SDS011;47397;48.194;11.632;2023-04-03T00:41:59;4.70;;;3.83;;
61531;SDS011;47397;48.194;11.632;2023-04-03T00:42:59;5.68;;;3.67;;
61531;SDS011;47397;48.194;11.632;2023-04-03T00:44:00;6.07;;;3.80;;
61531;SDS011;47397;48.194;11.632;2023-04-03T00:46:40;5.57;;;4.10;;
61531;SDS011;47397;48.194;11.632;2023-04-03T00:47:41;5.28;;;3.92;;
61531;SDS011;47397;48.194;11.632;2023-04-03T00:48:42;5.15;;;4.10;;
61531;SDS011;47397;48.194;11.632;2023-04-03T00:49:45;5.80;;;4.10;;
61531;SDS011;47397;48.194;11.632;2023-04-03T00:50:46;6.75;;;3.95;;
61531;SDS011;47397;48.194;11.632;2023-04-03T00:51:47;5.13;;;3.70;;
61531;SDS011;47397;48.194;11.632;2023-04-03T00:52:48;5.75;;;3.97;;
61531;SDS011;47397;48.194;11.632;2023-04-03T00:53:49;5.35;;;4.68;;
61531;SDS011;47397;48.194;11.632;2023-04-03T00:54:54;5.60;;;4.22;;
61531;SDS011;47397;48.194;11.632;2023-04-03T00:56:00;4.55;;;3.63;;
61531;SDS011;47397;48.194;11.632;2023-04-03T00:57:01;5.38;;;3.97;;
61531;SDS011;47397;48.194;11.632;2023-04-03T00:58:02;4.75;;;3.88;;
61531;SDS011;47397;48.194;11.632;2023-04-03T00:59:03;5.53;;;3.88;;
61531;SDS011;47397;48.194;11.632;2023-04-03T01:00:07;5.78;;;3.92;;
61531;SDS011;47397;48.194;11.632;2023-04-03T01:01:10;5.10;;;4.03;;
61531;SDS011;47397;48.194;11.632;2023-04-03T01:02:15;4.55;;;3.90;;
61531;SDS011;47397;48.194;11.632;2023-04-03T01:03:16;4.57;;;3.70;;
61531;SDS011;47397;48.194;11.632;2023-04-03T01:04:26;6.47;;;4.00;;
61531;SDS011;47397;48.194;11.632;2023-04-03T01:05:28;4.68;;;3.92;;
61531;SDS011;47397;48.194;11.632;2023-04-03T01:06:30;5.15;;;3.90;;
61531;SDS011;47397;48.194;11.632;2023-04-03T01:07:33;4.65;;;3.90;;
61531;SDS011;47397;48.194;11.632;2023-04-03T01:08:34;6.57;;;3.70;;
61531;SDS011;47397;48.194;11.632;2023-04-03T01:09:35;5.25;;;4.05;;
61531;SDS011;47397;48.194;11.632;2023-04-03T01:10:36;6.68;;;4.60;;
61531;SDS011;47397;48.194;11.632;2023-04-03T01:11:37;6.15;;;3.83;;
61531;SDS011;47397;48.194;11.632;2023-04-03T01:12:38;6.35;;;4.10;;
61531;SDS011;47397;48.194;11.632;2023-04-03T01:13:39;5.55;;;4.10;;
61531;SDS011;47397;48.194;11.632;2023-04-03T01:14:40;5.70;;;4.13;;
61531;SDS011;47397;48.194;11.632;2023-04-03T01:15:40;5.20;;;3.80;;
61531;SDS011;47397;48.194;11.632;2023-04-03T01:16:40;5.70;;;4.30;;
61531;SDS011;47397;48.194;11.632;2023-04-03T01:17:42;7.25;;;4.15;;
61531;SDS011;47397;48.194;11.632;2023-04-03T01:18:44;4.80;;;3.80;;
61531;SDS011;47397;48.194;11.632;2023-04-03T01:19:45;4.72;;;4.05;;
61531;SDS011;47397;48.194;11.632;2023-04-03T01:21:04;5.60;;;3.67;;
61531;SDS011;47397;48.194;11.632;2023-04-03T01:22:23;4.30;;;3.63;;
61531;SDS011;47397;48.194;11.632;2023-04-03T01:23:32;4.75;;;3.88;;
61531;SDS011;47397;48.194;11.632;2023-04-03T01:25:43;4.15;;;3.50;;
61531;SDS011;47397;48.194;11.632;2023-04-03T01:26:44;4.35;;;3.72;;
61531;SDS011;47397;48.194;11.632;2023-04-03T01:27:45;4.60;;;3.75;;
61531;SDS011;47397;48.194;11.632;2023-04-03T01:28:45;4.75;;;4.10;;
61531;SDS011;47397;48.194;11.632;2023-04-03T01:29:46;4.78;;;4.10;;
61531;SDS011;47397;48.194;11.632;2023-04-03T01:30:48;4.13;;;3.47;;
61531;SDS011;47397;48.194;11.632;2023-04-03T01:31:54;4.43;;;3.67;;
61531;SDS011;47397;48.194;11.632;2023-04-03T01:32:56;4.72;;;3.88;;
61531;SDS011;47397;48.194;11.632;2023-04-03T01:33:57;4.90;;;4.07;;
61531;SDS011;47397;48.194;11.632;2023-04-03T01:34:57;5.30;;;3.88;;
61531;SDS011;47397;48.194;11.632;2023-04-03T01:35:58;4.45;;;3.75;;
61531;SDS011;47397;48.194;11.632;2023-04-03T01:36:58;4.55;;;3.45;;
61531;SDS011;47397;48.194;11.632;2023-04-03T01:37:58;4.60;;;3.83;;
61531;SDS011;47397;48.194;11.632;2023-04-03T01:38:59;4.35;;;3.92;;
61531;SDS011;47397;48.194;11.632;2023-04-03T01:40:00;5.25;;;3.85;;
61531;SDS011;47397;48.194;11.632;2023-04-03T01:41:00;4.20;;;3.50;;
61531;SDS011;47397;48.194;11.632;2023-04-03T01:42:01;5.47;;;3.70;;
61531;SDS011;47397;48.194;11.632;2023-04-03T01:43:01;5.18;;;3.70;;
61531;SDS011;47397;48.194;11.632;2023-04-03T01:44:02;5.45;;;3.50;;
61531;SDS011;47397;48.194;11.632;2023-04-03T01:45:03;4.60;;;3.38;;
61531;SDS011;47397;48.194;11.632;2023-04-03T01:46:03;5.30;;;3.53;;
61531;SDS011;47397;48.194;11.632;2023-04-03T01:47:06;4.70;;;3.75;;
61531;SDS011;47397;48.194;11.632;2023-04-03T01:48:07;6.88;;;4.10;;
61531;SDS011;47397;48.194;11.632;2023-04-03T01:49:07;6.05;;;4.05;;
61531;SDS011;47397;48.194;11.632;2023-04-03T01:50:08;4.75;;;3.78;;
61531;SDS011;47397;48.194;11.632;2023-04-03T01:51:09;5.75;;;3.55;;
61531;SDS011;47397;48.194;11.632;2023-04-03T01:52:09;3.92;;;3.45;;
61531;SDS011;47397;48.194;11.632;2023-04-03T01:53:10;4.70;;;3.85;;
61531;SDS011;47397;48.194;11.632;2023-04-03T01:54:10;4.80;;;3.90;;
61531;SDS011;47397;48.194;11.632;2023-04-03T01:55:11;5.03;;;3.45;;
61531;SDS011;47397;48.194;11.632;2023-04-03T01:56:11;4.88;;;3.40;;
61531;SDS011;47397;48.194;11.632;2023-04-03T01:57:12;4.13;;;3.38;;
61531;SDS011;47397;48.194;11.632;2023-04-03T01:58:12;4.88;;;3.50;;
61531;SDS011;47397;48.194;11.632;2023-04-03T01:59:13;4.78;;;3.90;;
61531;SDS011;47397;48.194;11.632;2023-04-03T02:00:13;4.20;;;3.45;;
61531;SDS011;47397;48.194;11.632;2023-04-03T02:01:14;5.25;;;3.63;;
61531;SDS011;47397;48.194;11.632;2023-04-03T02:02:16;4.63;;;3.63;;
61531;SDS011;47397;48.194;11.632;2023-04-03T02:03:16;4.05;;;3.60;;
61531;SDS011;47397;48.194;11.632;2023-04-03T02:04:17;4.80;;;3.60;;
61531;SDS011;47397;48.194;11.632;2023-04-03T02:05:17;5.10;;;3.80;;
61531;SDS011;47397;48.194;11.632;2023-04-03T02:06:18;3.63;;;2.95;;
61531;SDS011;47397;48.194;11.632;2023-04-03T02:07:18;5.25;;;3.40;;
61531;SDS011;47397;48.194;11.632;2023-04-03T02:08:19;3.88;;;3.33;;
61531;SDS011;47397;48.194;11.632;2023-04-03T02:09:19;5.20;;;3.65;;
61531;SDS011;47397;48.194;11.632;2023-04-03T02:10:20;4.32;;;3.30;;
61531;SDS011;47397;48.194;11.632;2023-04-03T02:11:20;5.80;;;3.35;;
61531;SDS011;47397;48.194;11.632;2023-04-03T02:12:20;4.22;;;3.10;;
61531;SDS011;47397;48.194;11.632;2023-04-03T02:13:21;4.03;;;3.63;;
61531;SDS011;47397;48.194;11.632;2023-04-03T02:14:21;4.78;;;3.60;;
61531;SDS011;47397;48.194;11.632;2023-04-03T02:15:22;5.43;;;3.47;;
61531;SDS011;47397;48.194;11.632;2023-04-03T02:16:22;5.15;;;3.38;;
61531;SDS011;47397;48.194;11.632;2023-04-03T02:17:24;5.00;;;3.17;;
61531;SDS011;47397;48.194;11.632;2023-04-03T02:18:24;6.30;;;3.50;;
61531;SDS011;47397;48.194;11.632;2023-04-03T02:19:25;4.60;;;3.33;;
61531;SDS011;47397;48.194;11.632;2023-04-03T02:20:25;5.40;;;3.33;;
61531;SDS011;47397;48.194;11.632;2023-04-03T02:21:26;5.15;;;2.97;;
61531;SDS011;47397;48.194;11.632;2023-04-03T02:22:26;5.85;;;3.20;;
61531;SDS011;47397;48.194;11.632;2023-04-03T02:23:26;4.38;;;3.38;;
61531;SDS011;47397;48.194;11.632;2023-04-03T02:24:27;4.90;;;3.55;;
61531;SDS011;47397;48.194;11.632;2023-04-03T02:25:27;4.47;;;3.10;;
61531;SDS011;47397;48.194;11.632;2023-04-03T02:26:28;4.60;;;3.38;;
61531;SDS011;47397;48.194;11.632;2023-04-03T02:27:28;4.32;;;3.38;;
61531;SDS011;47397;48.194;11.632;2023-04-03T02:28:28;4.32;;;3.15;;
61531;SDS011;47397;48.194;11.632;2023-04-03T02:29:29;4.00;;;3.05;;
61531;SDS011;47397;48.194;11.632;2023-04-03T02:30:29;4.72;;;3.63;;
61531;SDS011;47397;48.194;11.632;2023-04-03T02:31:30;3.63;;;3.10;;
61531;SDS011;47397;48.194;11.632;2023-04-03T02:32:31;5.25;;;3.22;;
61531;SDS011;47397;48.194;11.632;2023-04-03T02:33:32;4.05;;;2.85;;
61531;SDS011;47397;48.194;11.632;2023-04-03T02:34:33;4.70;;;3.20;;
61531;SDS011;47397;48.194;11.632;2023-04-03T02:35:33;4.28;;;3.03;;
61531;SDS011;47397;48.194;11.632;2023-04-03T02:36:34;5.65;;;3.13;;
61531;SDS011;47397;48.194;11.632;2023-04-03T02:37:34;3.90;;;3.00;;
61531;SDS011;47397;48.194;11.632;2023-04-03T02:38:35;5.05;;;3.08;;
61531;SDS011;47397;48.194;11.632;2023-04-03T02:39:36;4.00;;;3.50;;
61531;SDS011;47397;48.194;11.632;2023-04-03T02:40:37;3.65;;;2.70;;
61531;SDS011;47397;48.194;11.632;2023-04-03T02:41:37;4.30;;;3.20;;
61531;SDS011;47397;48.194;11.632;2023-04-03T02:42:38;3.28;;;2.67;;
61531;SDS011;47397;48.194;11.632;2023-04-03T02:43:38;3.95;;;3.15;;
61531;SDS011;47397;48.194;11.632;2023-04-03T02:44:39;3.10;;;2.63;;
61531;SDS011;47397;48.194;11.632;2023-04-03T02:45:39;4.40;;;3.00;;
61531;SDS011;47397;48.194;11.632;2023-04-03T02:46:40;4.15;;;3.03;;
61531;SDS011;47397;48.194;11.632;2023-04-03T02:47:41;4.15;;;3.00;;
61531;SDS011;47397;48.194;11.632;2023-04-03T02:48:42;4.35;;;3.05;;
61531;SDS011;47397;48.194;11.632;2023-04-03T02:49:42;3.72;;;2.60;;
61531;SDS011;47397;48.194;11.632;2023-04-03T02:50:43;3.55;;;3.00;;
61531;SDS011;47397;48.194;11.632;2023-04-03T02:51:43;4.07;;;3.03;;
61531;SDS011;47397;48.194;11.632;2023-04-03T02:52:44;3.60;;;2.55;;
61531;SDS011;47397;48.194;11.632;2023-04-03T02:53:44;3.35;;;2.53;;
61531;SDS011;47397;48.194;11.632;2023-04-03T02:54:45;3.70;;;2.85;;
61531;SDS011;47397;48.194;11.632;2023-04-03T02:55:45;4.63;;;2.72;;
61531;SDS011;47397;48.194;11.632;2023-04-03T02:56:45;3.33;;;2.65;;
61531;SDS011;47397;48.194;11.632;2023-04-03T02:57:46;3.03;;;2.50;;
61531;SDS011;47397;48.194;11.632;2023-04-03T02:58:46;3.60;;;2.80;;
61531;SDS011;47397;48.194;11.632;2023-04-03T02:59:47;3.13;;;2.40;;
61531;SDS011;47397;48.194;11.632;2023-04-03T03:00:47;4.20;;;2.60;;
61531;SDS011;47397;48.194;11.632;2023-04-03T03:01:48;3.78;;;2.67;;
61531;SDS011;47397;48.194;11.632;2023-04-03T03:02:53;4.05;;;3.10;;
61531;SDS011;47397;48.194;11.632;2023-04-03T03:03:53;3.03;;;2.47;;
61531;SDS011;47397;48.194;11.632;2023-04-03T03:04:54;3.45;;;2.58;;
61531;SDS011;47397;48.194;11.632;2023-04-03T03:06:00;3.15;;;2.60;;
61531;SDS011;47397;48.194;11.632;2023-04-03T03:07:02;3.40;;;2.63;;
61531;SDS011;47397;48.194;11.632;2023-04-03T03:08:03;4.63;;;3.00;;
61531;SDS011;47397;48.194;11.632;2023-04-03T03:09:03;3.05;;;2.58;;
61531;SDS011;47397;48.194;11.632;2023-04-03T03:10:04;4.25;;;2.50;;
61531;SDS011;47397;48.194;11.632;2023-04-03T03:11:05;3.53;;;2.60;;
61531;SDS011;47397;48.194;11.632;2023-04-03T03:12:06;3.60;;;2.60;;
61531;SDS011;47397;48.194;11.632;2023-04-03T03:13:07;3.60;;;2.60;;
61531;SDS011;47397;48.194;11.632;2023-04-03T03:14:07;3.40;;;2.70;;
61531;SDS011;47397;48.194;11.632;2023-04-03T03:15:08;3.17;;;2.50;;
61531;SDS011;47397;48.194;11.632;2023-04-03T03:16:09;4.25;;;2.70;;
61531;SDS011;47397;48.194;11.632;2023-04-03T03:17:09;3.40;;;2.60;;
61531;SDS011;47397;48.194;11.632;2023-04-03T03:18:11;3.88;;;2.40;;
61531;SDS011;47397;48.194;11.632;2023-04-03T03:19:11;4.18;;;2.65;;
61531;SDS011;47397;48.194;11.632;2023-04-03T03:20:12;5.15;;;2.70;;
61531;SDS011;47397;48.194;11.632;2023-04-03T03:21:13;3.70;;;2.63;;
61531;SDS011;47397;48.194;11.632;2023-04-03T03:22:14;3.50;;;2.65;;
61531;SDS011;47397;48.194;11.632;2023-04-03T03:23:14;4.10;;;2.45;;
61531;SDS011;47397;48.194;11.632;2023-04-03T03:24:14;2.97;;;2.58;;
61531;SDS011;47397;48.194;11.632;2023-04-03T03:25:15;3.40;;;2.50;;
61531;SDS011;47397;48.194;11.632;2023-04-03T03:26:15;3.78;;;2.53;;
61531;SDS011;47397;48.194;11.632;2023-04-03T03:27:16;4.20;;;2.28;;
61531;SDS011;47397;48.194;11.632;2023-04-03T03:28:16;3.35;;;2.40;;
61531;SDS011;47397;48.194;11.632;2023-04-03T03:29:17;3.75;;;2.60;;
61531;SDS011;47397;48.194;11.632;2023-04-03T03:30:17;3.83;;;2.70;;
61531;SDS011;47397;48.194;11.632;2023-04-03T03:31:18;3.42;;;2.60;;
61531;SDS011;47397;48.194;11.632;2023-04-03T03:32:18;3.42;;;2.50;;
61531;SDS011;47397;48.194;11.632;2023-04-03T03:33:20;3.03;;;2.70;;
61531;SDS011;47397;48.194;11.632;2023-04-03T03:34:20;3.45;;;2.92;;
61531;SDS011;47397;48.194;11.632;2023-04-03T03:35:22;3.35;;;2.50;;
61531;SDS011;47397;48.194;11.632;2023-04-03T03:36:22;3.60;;;2.40;;
61531;SDS011;47397;48.194;11.632;2023-04-03T03:37:23;3.53;;;2.50;;
61531;SDS011;47397;48.194;11.632;2023-04-03T03:38:23;2.90;;;2.35;;
61531;SDS011;47397;48.194;11.632;2023-04-03T03:39:24;2.83;;;2.35;;
61531;SDS011;47397;48.194;11.632;2023-04-03T03:40:24;3.35;;;2.15;;
61531;SDS011;47397;48.194;11.632;2023-04-03T03:41:25;3.20;;;2.30;;
61531;SDS011;47397;48.194;11.632;2023-04-03T03:42:25;3.28;;;2.17;;
61531;SDS011;47397;48.194;11.632;2023-04-03T03:43:27;2.97;;;2.20;;
61531;SDS011;47397;48.194;11.632;2023-04-03T03:44:27;3.67;;;2.60;;
61531;SDS011;47397;48.194;11.632;2023-04-03T03:45:28;3.17;;;2.42;;
61531;SDS011;47397;48.194;11.632;2023-04-03T03:46:28;3.08;;;2.38;;
61531;SDS011;47397;48.194;11.632;2023-04-03T03:47:29;5.32;;;2.40;;
61531;SDS011;47397;48.194;11.632;2023-04-03T03:48:31;3.38;;;2.25;;
61531;SDS011;47397;48.194;11.632;2023-04-03T03:49:31;3.15;;;2.30;;
61531;SDS011;47397;48.194;11.632;2023-04-03T03:50:32;3.75;;;2.50;;
61531;SDS011;47397;48.194;11.632;2023-04-03T03:51:32;2.70;;;2.28;;
61531;SDS011;47397;48.194;11.632;2023-04-03T03:52:33;3.58;;;2.20;;
61531;SDS011;47397;48.194;11.632;2023-04-03T03:53:34;4.00;;;2.25;;
61531;SDS011;47397;48.194;11.632;2023-04-03T03:54:34;3.53;;;2.25;;
61531;SDS011;47397;48.194;11.632;2023-04-03T03:55:35;3.60;;;2.40;;
61531;SDS011;47397;48.194;11.632;2023-04-03T03:56:35;2.92;;;2.17;;
61531;SDS011;47397;48.194;11.632;2023-04-03T03:57:35;3.17;;;1.95;;
61531;SDS011;47397;48.194;11.632;2023-04-03T03:58:36;3.22;;;2.38;;
61531;SDS011;47397;48.194;11.632;2023-04-03T03:59:37;4.00;;;2.60;;
61531;SDS011;47397;48.194;11.632;2023-04-03T04:00:37;3.35;;;2.45;;
61531;SDS011;47397;48.194;11.632;2023-04-03T04:01:37;3.67;;;2.58;;
61531;SDS011;47397;48.194;11.632;2023-04-03T04:02:38;3.72;;;2.75;;
61531;SDS011;47397;48.194;11.632;2023-04-03T04:03:40;3.55;;;2.25;;
61531;SDS011;47397;48.194;11.632;2023-04-03T04:04:40;3.55;;;2.67;;
61531;SDS011;47397;48.194;11.632;2023-04-03T04:05:41;2.90;;;2.20;;
61531;SDS011;47397;48.194;11.632;2023-04-03T04:06:41;3.17;;;2.13;;
61531;SDS011;47397;48.194;11.632;2023-04-03T04:07:41;4.35;;;2.40;;
61531;SDS011;47397;48.194;11.632;2023-04-03T04:08:42;4.13;;;2.40;;
61531;SDS011;47397;48.194;11.632;2023-04-03T04:09:43;3.45;;;2.30;;
61531;SDS011;47397;48.194;11.632;2023-04-03T04:10:43;3.33;;;2.60;;
61531;SDS011;47397;48.194;11.632;2023-04-03T04:11:44;3.72;;;2.30;;
61531;SDS011;47397;48.194;11.632;2023-04-03T04:12:44;3.20;;;2.25;;
61531;SDS011;47397;48.194;11.632;2023-04-03T04:13:44;3.13;;;2.30;;
61531;SDS011;47397;48.194;11.632;2023-04-03T04:14:45;2.97;;;2.20;;
61531;SDS011;47397;48.194;11.632;2023-04-03T04:15:45;4.07;;;2.40;;
61531;SDS011;47397;48.194;11.632;2023-04-03T04:16:46;2.63;;;1.95;;
61531;SDS011;47397;48.194;11.632;2023-04-03T04:17:46;3.83;;;2.58;;
61531;SDS011;47397;48.194;11.632;2023-04-03T04:18:48;3.13;;;2.60;;
61531;SDS011;47397;48.194;11.632;2023-04-03T04:19:48;3.60;;;2.42;;
61531;SDS011;47397;48.194;11.632;2023-04-03T04:20:49;3.63;;;2.58;;
61531;SDS011;47397;48.194;11.632;2023-04-03T04:21:49;2.85;;;2.25;;
61531;SDS011;47397;48.194;11.632;2023-04-03T04:22:50;3.53;;;2.70;;
61531;SDS011;47397;48.194;11.632;2023-04-03T04:23:51;3.17;;;2.40;;
61531;SDS011;47397;48.194;11.632;2023-04-03T04:24:51;3.47;;;2.35;;
61531;SDS011;47397;48.194;11.632;2023-04-03T04:25:51;2.90;;;2.35;;
61531;SDS011;47397;48.194;11.632;2023-04-03T04:26:52;3.28;;;2.30;;
61531;SDS011;47397;48.194;11.632;2023-04-03T04:27:52;3.28;;;2.55;;
61531;SDS011;47397;48.194;11.632;2023-04-03T04:28:53;4.30;;;2.20;;
61531;SDS011;47397;48.194;11.632;2023-04-03T04:29:53;3.10;;;2.30;;
61531;SDS011;47397;48.194;11.632;2023-04-03T04:30:54;3.42;;;2.35;;
61531;SDS011;47397;48.194;11.632;2023-04-03T04:31:54;3.05;;;2.33;;
61531;SDS011;47397;48.194;11.632;2023-04-03T04:32:55;3.35;;;2.40;;
61531;SDS011;47397;48.194;11.632;2023-04-03T04:33:56;3.47;;;2.25;;
61531;SDS011;47397;48.194;11.632;2023-04-03T04:34:57;3.05;;;2.50;;
61531;SDS011;47397;48.194;11.632;2023-04-03T04:35:57;3.15;;;2.08;;
61531;SDS011;47397;48.194;11.632;2023-04-03T04:36:58;3.03;;;2.40;;
61531;SDS011;47397;48.194;11.632;2023-04-03T04:37:58;3.53;;;2.47;;
61531;SDS011;47397;48.194;11.632;2023-04-03T04:38:58;3.72;;;2.47;;
61531;SDS011;47397;48.194;11.632;2023-04-03T04:39:59;3.78;;;2.40;;
61531;SDS011;47397;48.194;11.632;2023-04-03T04:40:59;4.15;;;2.60;;
61531;SDS011;47397;48.194;11.632;2023-04-03T04:42:00;3.38;;;2.50;;
61531;SDS011;47397;48.194;11.632;2023-04-03T04:43:01;4.18;;;2.60;;
61531;SDS011;47397;48.194;11.632;2023-04-03T04:44:01;3.40;;;2.28;;
61531;SDS011;47397;48.194;11.632;2023-04-03T04:45:02;2.42;;;2.00;;
61531;SDS011;47397;48.194;11.632;2023-04-03T04:46:03;3.92;;;2.80;;
61531;SDS011;47397;48.194;11.632;2023-04-03T04:47:05;4.18;;;2.80;;
61531;SDS011;47397;48.194;11.632;2023-04-03T04:48:05;3.65;;;2.47;;
61531;SDS011;47397;48.194;11.632;2023-04-03T04:49:07;3.42;;;2.53;;
61531;SDS011;47397;48.194;11.632;2023-04-03T04:50:08;3.63;;;2.22;;
61531;SDS011;47397;48.194;11.632;2023-04-03T04:51:09;3.33;;;2.30;;
61531;SDS011;47397;48.194;11.632;2023-04-03T04:52:10;3.60;;;2.50;;
61531;SDS011;47397;48.194;11.632;2023-04-03T04:53:10;2.90;;;2.20;;
61531;SDS011;47397;48.194;11.632;2023-04-03T04:54:11;4.07;;;2.30;;
61531;SDS011;47397;48.194;11.632;2023-04-03T04:55:11;3.30;;;2.42;;
61531;SDS011;47397;48.194;11.632;2023-04-03T04:56:13;4.82;;;2.70;;
61531;SDS011;47397;48.194;11.632;2023-04-03T04:57:14;3.75;;;2.47;;
61531;SDS011;47397;48.194;11.632;2023-04-03T04:58:14;3.53;;;2.50;;
61531;SDS011;47397;48.194;11.632;2023-04-03T04:59:15;3.88;;;2.30;;
61531;SDS011;47397;48.194;11.632;2023-04-03T05:00:15;3.90;;;2.22;;
61531;SDS011;47397;48.194;11.632;2023-04-03T05:01:16;4.00;;;2.65;;
61531;SDS011;47397;48.194;11.632;2023-04-03T05:02:17;3.03;;;2.30;;
61531;SDS011;47397;48.194;11.632;2023-04-03T05:03:17;3.28;;;2.38;;
61531;SDS011;47397;48.194;11.632;2023-04-03T05:04:19;3.55;;;2.70;;
61531;SDS011;47397;48.194;11.632;2023-04-03T05:05:20;3.78;;;2.30;;
61531;SDS011;47397;48.194;11.632;2023-04-03T05:06:20;3.92;;;2.53;;
61531;SDS011;47397;48.194;11.632;2023-04-03T05:07:21;2.90;;;2.03;;
61531;SDS011;47397;48.194;11.632;2023-04-03T05:08:21;3.53;;;2.15;;
61531;SDS011;47397;48.194;11.632;2023-04-03T05:09:22;4.25;;;2.83;;
61531;SDS011;47397;48.194;11.632;2023-04-03T05:10:22;3.40;;;2.63;;
61531;SDS011;47397;48.194;11.632;2023-04-03T05:11:23;2.78;;;2.25;;
61531;SDS011;47397;48.194;11.632;2023-04-03T05:12:24;3.70;;;2.58;;
61531;SDS011;47397;48.194;11.632;2023-04-03T05:13:24;2.85;;;2.28;;
61531;SDS011;47397;48.194;11.632;2023-04-03T05:14:24;4.38;;;2.60;;
61531;SDS011;47397;48.194;11.632;2023-04-03T05:15:25;3.85;;;2.30;;
61531;SDS011;47397;48.194;11.632;2023-04-03T05:16:26;4.10;;;2.80;;
61531;SDS011;47397;48.194;11.632;2023-04-03T05:17:26;3.13;;;2.50;;
61531;SDS011;47397;48.194;11.632;2023-04-03T05:18:26;3.22;;;2.45;;
61531;SDS011;47397;48.194;11.632;2023-04-03T05:19:28;3.70;;;2.50;;
61531;SDS011;47397;48.194;11.632;2023-04-03T05:20:29;4.32;;;2.70;;
61531;SDS011;47397;48.194;11.632;2023-04-03T05:21:29;4.80;;;2.97;;
61531;SDS011;47397;48.194;11.632;2023-04-03T05:22:30;3.55;;;2.40;;
61531;SDS011;47397;48.194;11.632;2023-04-03T05:23:31;3.17;;;2.17;;
61531;SDS011;47397;48.194;11.632;2023-04-03T05:24:31;4.75;;;2.80;;
61531;SDS011;47397;48.194;11.632;2023-04-03T05:25:32;3.60;;;2.58;;
61531;SDS011;47397;48.194;11.632;2023-04-03T05:26:32;3.40;;;2.33;;
61531;SDS011;47397;48.194;11.632;2023-04-03T05:27:32;4.32;;;2.53;;
61531;SDS011;47397;48.194;11.632;2023-04-03T05:28:34;3.28;;;2.42;;
61531;SDS011;47397;48.194;11.632;2023-04-03T05:29:35;3.90;;;2.72;;
61531;SDS011;47397;48.194;11.632;2023-04-03T05:30:35;3.80;;;2.72;;
61531;SDS011;47397;48.194;11.632;2023-04-03T05:31:35;3.80;;;2.95;;
61531;SDS011;47397;48.194;11.632;2023-04-03T05:32:36;3.30;;;2.78;;
61531;SDS011;47397;48.194;11.632;2023-04-03T05:33:36;3.13;;;2.38;;
61531;SDS011;47397;48.194;11.632;2023-04-03T05:34:38;3.60;;;2.65;;
61531;SDS011;47397;48.194;11.632;2023-04-03T05:35:39;3.80;;;2.55;;
61531;SDS011;47397;48.194;11.632;2023-04-03T05:36:39;3.30;;;2.47;;
61531;SDS011;47397;48.194;11.632;2023-04-03T05:37:40;3.50;;;2.53;;
61531;SDS011;47397;48.194;11.632;2023-04-03T05:38:40;4.03;;;2.90;;
61531;SDS011;47397;48.194;11.632;2023-04-03T05:39:41;2.97;;;2.65;;
61531;SDS011;47397;48.194;11.632;2023-04-03T05:40:41;4.25;;;2.72;;
61531;SDS011;47397;48.194;11.632;2023-04-03T05:41:42;3.22;;;2.55;;
61531;SDS011;47397;48.194;11.632;2023-04-03T05:42:42;3.30;;;2.70;;
61531;SDS011;47397;48.194;11.632;2023-04-03T05:43:42;3.25;;;2.40;;
61531;SDS011;47397;48.194;11.632;2023-04-03T05:44:43;3.50;;;2.53;;
61531;SDS011;47397;48.194;11.632;2023-04-03T05:45:44;4.85;;;3.20;;
61531;SDS011;47397;48.194;11.632;2023-04-03T05:46:44;3.90;;;2.80;;
61531;SDS011;47397;48.194;11.632;2023-04-03T05:47:45;3.47;;;2.38;;
61531;SDS011;47397;48.194;11.632;2023-04-03T05:48:45;2.78;;;2.20;;
61531;SDS011;47397;48.194;11.632;2023-04-03T05:49:47;3.53;;;2.50;;
61531;SDS011;47397;48.194;11.632;2023-04-03T05:50:48;3.83;;;2.55;;
61531;SDS011;47397;48.194;11.632;2023-04-03T05:51:48;3.88;;;2.45;;
61531;SDS011;47397;48.194;11.632;2023-04-03T05:52:49;3.58;;;2.50;;
61531;SDS011;47397;48.194;11.632;2023-04-03T05:53:52;4.13;;;2.72;;
61531;SDS011;47397;48.194;11.632;2023-04-03T05:54:59;3.55;;;2.65;;
61531;SDS011;47397;48.194;11.632;2023-04-03T05:56:00;4.45;;;2.85;;
61531;SDS011;47397;48.194;11.632;2023-04-03T05:57:00;4.28;;;2.90;;
61531;SDS011;47397;48.194;11.632;2023-04-03T05:58:01;3.25;;;2.50;;
61531;SDS011;47397;48.194;11.632;2023-04-03T05:59:01;3.03;;;2.55;;
61531;SDS011;47397;48.194;11.632;2023-04-03T06:00:02;4.35;;;2.80;;
61531;SDS011;47397;48.194;11.632;2023-04-03T06:01:04;4.20;;;2.85;;
61531;SDS011;47397;48.194;11.632;2023-04-03T06:02:04;3.80;;;2.60;;
61531;SDS011;47397;48.194;11.632;2023-04-03T06:03:04;4.63;;;2.63;;
61531;SDS011;47397;48.194;11.632;2023-04-03T06:04:05;3.95;;;2.85;;